sensor_id;sensor_type;location;lat;lon;timestamp;P1;durP1;ratioP1;P2;durP2;ratioP2
13327;SDS011;6733;51.044;3.746;2022-09-13T00:00:56;4.00;;;3.60;;
13327;SDS011;6733;51.044;3.746;2022-09-13T00:03:23;4.67;;;4.03;;
13327;SDS011;6733;51.044;3.746;2022-09-13T00:05:50;4.07;;;3.50;;
13327;SDS011;6733;51.044;3.746;2022-09-13T00:08:17;4.37;;;3.70;;
13327;SDS011;6733;51.044;3.746;2022-09-13T00:10:44;6.53;;;4.00;;
13327;SDS011;6733;51.044;3.746;2022-09-13T00:13:12;7.00;;;4.47;;
13327;SDS011;6733;51.044;3.746;2022-09-13T00:15:43;4.10;;;3.70;;
13327;SDS011;6733;51.044;3.746;2022-09-13T00:18:14;4.07;;;3.47;;
13327;SDS011;6733;51.044;3.746;2022-09-13T00:20:43;6.53;;;3.83;;
13327;SDS011;6733;51.044;3.746;2022-09-13T00:23:09;3.87;;;3.30;;
13327;SDS011;6733;51.044;3.746;2022-09-13T00:25:36;4.63;;;3.80;;
13327;SDS011;6733;51.044;3.746;2022-09-13T00:28:03;5.57;;;3.90;;
13327;SDS011;6733;51.044;3.746;2022-09-13T00:30:30;4.97;;;3.57;;
13327;SDS011;6733;51.044;3.746;2022-09-13T00:32:56;5.47;;;3.83;;
13327;SDS011;6733;51.044;3.746;2022-09-13T00:35:23;5.43;;;3.30;;
13327;SDS011;6733;51.044;3.746;2022-09-13T00:37:49;3.40;;;3.10;;
13327;SDS011;6733;51.044;3.746;2022-09-13T00:40:15;4.70;;;3.90;;
13327;SDS011;6733;51.044;3.746;2022-09-13T00:42:42;4.87;;;3.70;;
13327;SDS011;6733;51.044;3.746;2022-09-13T00:53:20;5.43;;;3.80;;
13327;SDS011;6733;51.044;3.746;2022-09-13T00:55:55;4.80;;;3.87;;
13327;SDS011;6733;51.044;3.746;2022-09-13T00:58:32;6.47;;;3.60;;
13327;SDS011;6733;51.044;3.746;2022-09-13T01:01:07;7.07;;;4.03;;
13327;SDS011;6733;51.044;3.746;2022-09-13T01:03:36;4.60;;;4.13;;
13327;SDS011;6733;51.044;3.746;2022-09-13T01:06:11;4.00;;;3.70;;
13327;SDS011;6733;51.044;3.746;2022-09-13T01:08:46;5.53;;;3.80;;
13327;SDS011;6733;51.044;3.746;2022-09-13T01:11:18;4.77;;;3.47;;
13327;SDS011;6733;51.044;3.746;2022-09-13T01:13:51;5.17;;;3.40;;
13327;SDS011;6733;51.044;3.746;2022-09-13T01:16:18;7.10;;;3.63;;
13327;SDS011;6733;51.044;3.746;2022-09-13T01:18:44;6.33;;;3.80;;
13327;SDS011;6733;51.044;3.746;2022-09-13T01:35:22;5.33;;;3.73;;
13327;SDS011;6733;51.044;3.746;2022-09-13T01:37:54;4.30;;;3.87;;
13327;SDS011;6733;51.044;3.746;2022-09-13T01:46:04;6.93;;;4.20;;
13327;SDS011;6733;51.044;3.746;2022-09-13T01:59:14;4.73;;;4.20;;
13327;SDS011;6733;51.044;3.746;2022-09-13T02:01:55;5.90;;;4.40;;
13327;SDS011;6733;51.044;3.746;2022-09-13T02:04:27;8.63;;;4.40;;
13327;SDS011;6733;51.044;3.746;2022-09-13T02:07:02;7.00;;;3.83;;
13327;SDS011;6733;51.044;3.746;2022-09-13T02:09:32;6.53;;;3.70;;
13327;SDS011;6733;51.044;3.746;2022-09-13T02:12:05;4.10;;;3.70;;
13327;SDS011;6733;51.044;3.746;2022-09-13T02:14:42;5.63;;;3.80;;
13327;SDS011;6733;51.044;3.746;2022-09-13T02:17:14;6.50;;;3.93;;
13327;SDS011;6733;51.044;3.746;2022-09-13T02:19:46;4.43;;;4.00;;
13327;SDS011;6733;51.044;3.746;2022-09-13T02:22:18;6.60;;;3.77;;
13327;SDS011;6733;51.044;3.746;2022-09-13T02:24:49;4.47;;;4.03;;
13327;SDS011;6733;51.044;3.746;2022-09-13T02:27:20;5.57;;;3.77;;
13327;SDS011;6733;51.044;3.746;2022-09-13T02:29:52;5.93;;;4.03;;
13327;SDS011;6733;51.044;3.746;2022-09-13T02:32:24;3.60;;;3.30;;
13327;SDS011;6733;51.044;3.746;2022-09-13T02:35:19;4.87;;;4.23;;
13327;SDS011;6733;51.044;3.746;2022-09-13T02:38:04;5.33;;;3.67;;
13327;SDS011;6733;51.044;3.746;2022-09-13T02:40:50;4.90;;;3.57;;
13327;SDS011;6733;51.044;3.746;2022-09-13T02:43:24;5.30;;;4.00;;
13327;SDS011;6733;51.044;3.746;2022-09-13T02:54:08;5.40;;;3.70;;
13327;SDS011;6733;51.044;3.746;2022-09-13T02:57:00;6.00;;;3.90;;
13327;SDS011;6733;51.044;3.746;2022-09-13T02:59:32;6.47;;;3.83;;
13327;SDS011;6733;51.044;3.746;2022-09-13T03:02:01;5.27;;;3.33;;
13327;SDS011;6733;51.044;3.746;2022-09-13T03:04:31;8.33;;;3.60;;
13327;SDS011;6733;51.044;3.746;2022-09-13T03:06:59;5.47;;;3.50;;
13327;SDS011;6733;51.044;3.746;2022-09-13T03:09:25;7.03;;;3.50;;
13327;SDS011;6733;51.044;3.746;2022-09-13T03:17:39;7.67;;;3.57;;
13327;SDS011;6733;51.044;3.746;2022-09-13T03:20:39;6.37;;;3.50;;
13327;SDS011;6733;51.044;3.746;2022-09-13T03:31:42;4.60;;;4.13;;
13327;SDS011;6733;51.044;3.746;2022-09-13T03:34:32;6.83;;;3.90;;
13327;SDS011;6733;51.044;3.746;2022-09-13T03:37:14;4.30;;;3.57;;
13327;SDS011;6733;51.044;3.746;2022-09-13T03:39:53;5.17;;;4.20;;
13327;SDS011;6733;51.044;3.746;2022-09-13T03:45:07;5.60;;;4.60;;
13327;SDS011;6733;51.044;3.746;2022-09-13T03:47:36;5.00;;;4.20;;
13327;SDS011;6733;51.044;3.746;2022-09-13T03:50:07;5.20;;;3.87;;
13327;SDS011;6733;51.044;3.746;2022-09-13T03:52:34;5.83;;;4.00;;
13327;SDS011;6733;51.044;3.746;2022-09-13T03:55:01;5.33;;;3.97;;
13327;SDS011;6733;51.044;3.746;2022-09-13T03:57:27;5.20;;;4.10;;
13327;SDS011;6733;51.044;3.746;2022-09-13T03:59:55;5.40;;;3.93;;
13327;SDS011;6733;51.044;3.746;2022-09-13T04:02:22;5.27;;;4.20;;
13327;SDS011;6733;51.044;3.746;2022-09-13T04:04:50;5.20;;;4.20;;
13327;SDS011;6733;51.044;3.746;2022-09-13T04:07:17;6.00;;;4.40;;
13327;SDS011;6733;51.044;3.746;2022-09-13T04:09:45;7.50;;;4.47;;
13327;SDS011;6733;51.044;3.746;2022-09-13T04:12:12;7.50;;;4.33;;
13327;SDS011;6733;51.044;3.746;2022-09-13T04:14:40;5.17;;;3.97;;
13327;SDS011;6733;51.044;3.746;2022-09-13T04:17:06;6.93;;;3.93;;
13327;SDS011;6733;51.044;3.746;2022-09-13T04:19:32;9.00;;;4.33;;
13327;SDS011;6733;51.044;3.746;2022-09-13T04:21:59;4.17;;;3.77;;
13327;SDS011;6733;51.044;3.746;2022-09-13T04:24:26;4.63;;;3.83;;
13327;SDS011;6733;51.044;3.746;2022-09-13T04:26:53;6.73;;;4.50;;
13327;SDS011;6733;51.044;3.746;2022-09-13T04:29:21;6.37;;;4.17;;
13327;SDS011;6733;51.044;3.746;2022-09-13T04:31:49;4.97;;;4.00;;
13327;SDS011;6733;51.044;3.746;2022-09-13T04:34:17;4.23;;;3.83;;
13327;SDS011;6733;51.044;3.746;2022-09-13T04:36:46;7.13;;;4.20;;
13327;SDS011;6733;51.044;3.746;2022-09-13T04:39:12;6.17;;;4.37;;
13327;SDS011;6733;51.044;3.746;2022-09-13T04:41:42;6.70;;;4.30;;
13327;SDS011;6733;51.044;3.746;2022-09-13T04:44:13;8.03;;;3.97;;
13327;SDS011;6733;51.044;3.746;2022-09-13T04:46:40;7.87;;;5.93;;
13327;SDS011;6733;51.044;3.746;2022-09-13T04:49:08;7.27;;;4.40;;
13327;SDS011;6733;51.044;3.746;2022-09-13T04:51:35;5.10;;;3.83;;
13327;SDS011;6733;51.044;3.746;2022-09-13T04:54:01;6.93;;;4.30;;
13327;SDS011;6733;51.044;3.746;2022-09-13T04:56:28;8.60;;;4.73;;
13327;SDS011;6733;51.044;3.746;2022-09-13T04:58:54;6.33;;;4.53;;
13327;SDS011;6733;51.044;3.746;2022-09-13T05:01:21;8.83;;;4.40;;
13327;SDS011;6733;51.044;3.746;2022-09-13T05:03:49;6.57;;;5.00;;
13327;SDS011;6733;51.044;3.746;2022-09-13T05:06:17;8.63;;;4.50;;
13327;SDS011;6733;51.044;3.746;2022-09-13T05:08:43;5.93;;;4.27;;
13327;SDS011;6733;51.044;3.746;2022-09-13T05:11:14;8.37;;;3.93;;
13327;SDS011;6733;51.044;3.746;2022-09-13T05:13:40;8.30;;;4.60;;
13327;SDS011;6733;51.044;3.746;2022-09-13T05:16:06;9.90;;;4.73;;
13327;SDS011;6733;51.044;3.746;2022-09-13T05:18:33;5.93;;;4.07;;
13327;SDS011;6733;51.044;3.746;2022-09-13T05:21:02;6.90;;;5.03;;
13327;SDS011;6733;51.044;3.746;2022-09-13T05:23:29;7.63;;;4.00;;
13327;SDS011;6733;51.044;3.746;2022-09-13T05:26:00;8.77;;;5.30;;
13327;SDS011;6733;51.044;3.746;2022-09-13T05:28:30;9.03;;;4.60;;
13327;SDS011;6733;51.044;3.746;2022-09-13T05:33:42;9.03;;;5.07;;
13327;SDS011;6733;51.044;3.746;2022-09-13T05:36:09;6.03;;;5.43;;
13327;SDS011;6733;51.044;3.746;2022-09-13T05:38:36;8.43;;;5.30;;
13327;SDS011;6733;51.044;3.746;2022-09-13T05:41:02;7.67;;;5.33;;
13327;SDS011;6733;51.044;3.746;2022-09-13T05:43:33;8.07;;;5.87;;
13327;SDS011;6733;51.044;3.746;2022-09-13T05:46:04;5.83;;;5.20;;
13327;SDS011;6733;51.044;3.746;2022-09-13T05:48:33;7.63;;;5.57;;
13327;SDS011;6733;51.044;3.746;2022-09-13T05:51:34;5.97;;;5.37;;
13327;SDS011;6733;51.044;3.746;2022-09-13T05:53:53;8.63;;;5.20;;
13327;SDS011;6733;51.044;3.746;2022-09-13T05:56:21;6.80;;;5.80;;
13327;SDS011;6733;51.044;3.746;2022-09-13T05:58:49;8.10;;;5.67;;
13327;SDS011;6733;51.044;3.746;2022-09-13T06:01:17;8.07;;;5.43;;
13327;SDS011;6733;51.044;3.746;2022-09-13T06:03:46;8.67;;;5.80;;
13327;SDS011;6733;51.044;3.746;2022-09-13T06:06:14;9.20;;;6.10;;
13327;SDS011;6733;51.044;3.746;2022-09-13T06:08:40;12.27;;;5.70;;
13327;SDS011;6733;51.044;3.746;2022-09-13T06:11:08;9.47;;;5.70;;
13327;SDS011;6733;51.044;3.746;2022-09-13T06:13:35;15.67;;;6.23;;
13327;SDS011;6733;51.044;3.746;2022-09-13T06:16:03;11.10;;;6.30;;
13327;SDS011;6733;51.044;3.746;2022-09-13T06:18:31;12.90;;;7.13;;
13327;SDS011;6733;51.044;3.746;2022-09-13T06:20:58;14.13;;;7.23;;
13327;SDS011;6733;51.044;3.746;2022-09-13T06:23:27;10.23;;;7.03;;
13327;SDS011;6733;51.044;3.746;2022-09-13T06:26:04;9.73;;;7.20;;
13327;SDS011;6733;51.044;3.746;2022-09-13T06:28:35;11.93;;;7.17;;
13327;SDS011;6733;51.044;3.746;2022-09-13T06:31:03;10.30;;;7.47;;
13327;SDS011;6733;51.044;3.746;2022-09-13T06:33:33;17.33;;;9.30;;
13327;SDS011;6733;51.044;3.746;2022-09-13T06:36:05;17.43;;;8.23;;
13327;SDS011;6733;51.044;3.746;2022-09-13T06:38:32;19.57;;;8.30;;
13327;SDS011;6733;51.044;3.746;2022-09-13T06:41:05;20.90;;;7.87;;
13327;SDS011;6733;51.044;3.746;2022-09-13T06:43:34;16.83;;;8.13;;
13327;SDS011;6733;51.044;3.746;2022-09-13T06:46:07;21.43;;;8.60;;
13327;SDS011;6733;51.044;3.746;2022-09-13T06:48:37;17.30;;;8.20;;
13327;SDS011;6733;51.044;3.746;2022-09-13T06:51:06;17.13;;;7.43;;
13327;SDS011;6733;51.044;3.746;2022-09-13T06:53:34;14.93;;;9.10;;
13327;SDS011;6733;51.044;3.746;2022-09-13T06:56:09;12.67;;;7.20;;
13327;SDS011;6733;51.044;3.746;2022-09-13T06:58:38;15.30;;;7.67;;
13327;SDS011;6733;51.044;3.746;2022-09-13T07:03:38;16.00;;;8.17;;
13327;SDS011;6733;51.044;3.746;2022-09-13T07:06:09;17.53;;;8.70;;
13327;SDS011;6733;51.044;3.746;2022-09-13T07:08:37;17.77;;;8.50;;
13327;SDS011;6733;51.044;3.746;2022-09-13T07:11:04;17.10;;;8.53;;
13327;SDS011;6733;51.044;3.746;2022-09-13T07:13:31;15.63;;;8.83;;
13327;SDS011;6733;51.044;3.746;2022-09-13T07:16:02;16.60;;;9.07;;
13327;SDS011;6733;51.044;3.746;2022-09-13T07:18:30;16.17;;;9.83;;
13327;SDS011;6733;51.044;3.746;2022-09-13T07:21:03;20.20;;;8.83;;
13327;SDS011;6733;51.044;3.746;2022-09-13T07:23:32;19.03;;;9.63;;
13327;SDS011;6733;51.044;3.746;2022-09-13T07:25:59;13.73;;;9.97;;
13327;SDS011;6733;51.044;3.746;2022-09-13T07:28:31;14.47;;;11.20;;
13327;SDS011;6733;51.044;3.746;2022-09-13T07:31:07;19.83;;;12.27;;
13327;SDS011;6733;51.044;3.746;2022-09-13T07:33:35;17.33;;;12.50;;
13327;SDS011;6733;51.044;3.746;2022-09-13T07:36:03;24.43;;;13.17;;
13327;SDS011;6733;51.044;3.746;2022-09-13T07:38:34;22.13;;;13.50;;
13327;SDS011;6733;51.044;3.746;2022-09-13T07:41:02;18.77;;;13.17;;
13327;SDS011;6733;51.044;3.746;2022-09-13T07:43:31;17.30;;;13.57;;
13327;SDS011;6733;51.044;3.746;2022-09-13T07:46:02;23.17;;;14.03;;
13327;SDS011;6733;51.044;3.746;2022-09-13T07:48:31;22.60;;;14.67;;
13327;SDS011;6733;51.044;3.746;2022-09-13T07:51:00;19.07;;;13.97;;
13327;SDS011;6733;51.044;3.746;2022-09-13T07:53:29;19.17;;;13.53;;
13327;SDS011;6733;51.044;3.746;2022-09-13T07:56:00;23.20;;;13.90;;
13327;SDS011;6733;51.044;3.746;2022-09-13T07:58:39;18.53;;;13.47;;
13327;SDS011;6733;51.044;3.746;2022-09-13T08:01:08;19.57;;;13.67;;
13327;SDS011;6733;51.044;3.746;2022-09-13T08:03:40;17.80;;;13.97;;
13327;SDS011;6733;51.044;3.746;2022-09-13T08:06:06;18.37;;;12.97;;
13327;SDS011;6733;51.044;3.746;2022-09-13T08:08:34;16.97;;;13.07;;
13327;SDS011;6733;51.044;3.746;2022-09-13T08:11:01;18.13;;;13.53;;
13327;SDS011;6733;51.044;3.746;2022-09-13T08:13:31;16.23;;;13.73;;
13327;SDS011;6733;51.044;3.746;2022-09-13T08:16:01;17.53;;;13.90;;
13327;SDS011;6733;51.044;3.746;2022-09-13T08:18:28;16.23;;;13.60;;
13327;SDS011;6733;51.044;3.746;2022-09-13T08:20:56;17.07;;;13.13;;
13327;SDS011;6733;51.044;3.746;2022-09-13T08:23:25;14.33;;;12.20;;
13327;SDS011;6733;51.044;3.746;2022-09-13T08:25:52;58.63;;;18.97;;
13327;SDS011;6733;51.044;3.746;2022-09-13T08:28:18;17.20;;;13.60;;
13327;SDS011;6733;51.044;3.746;2022-09-13T08:30:46;15.63;;;13.13;;
13327;SDS011;6733;51.044;3.746;2022-09-13T08:33:13;14.67;;;13.17;;
13327;SDS011;6733;51.044;3.746;2022-09-13T08:35:40;14.47;;;12.90;;
13327;SDS011;6733;51.044;3.746;2022-09-13T08:38:13;18.00;;;13.00;;
13327;SDS011;6733;51.044;3.746;2022-09-13T08:40:40;24.07;;;14.07;;
13327;SDS011;6733;51.044;3.746;2022-09-13T08:45:58;13.90;;;12.40;;
13327;SDS011;6733;51.044;3.746;2022-09-13T08:48:40;14.73;;;12.67;;
13327;SDS011;6733;51.044;3.746;2022-09-13T08:51:13;14.73;;;13.10;;
13327;SDS011;6733;51.044;3.746;2022-09-13T08:53:50;15.77;;;12.13;;
13327;SDS011;6733;51.044;3.746;2022-09-13T08:56:21;13.80;;;12.33;;
13327;SDS011;6733;51.044;3.746;2022-09-13T09:07:10;16.83;;;11.67;;
13327;SDS011;6733;51.044;3.746;2022-09-13T09:10:15;13.60;;;10.20;;
13327;SDS011;6733;51.044;3.746;2022-09-13T09:12:46;11.13;;;9.97;;
13327;SDS011;6733;51.044;3.746;2022-09-13T09:15:18;12.23;;;10.60;;
13327;SDS011;6733;51.044;3.746;2022-09-13T09:18:12;10.73;;;9.27;;
13327;SDS011;6733;51.044;3.746;2022-09-13T09:20:49;10.23;;;9.23;;
13327;SDS011;6733;51.044;3.746;2022-09-13T09:23:25;10.50;;;9.50;;
13327;SDS011;6733;51.044;3.746;2022-09-13T09:26:22;10.30;;;9.20;;
13327;SDS011;6733;51.044;3.746;2022-09-13T09:28:54;10.23;;;8.40;;
13327;SDS011;6733;51.044;3.746;2022-09-13T09:31:27;11.53;;;9.40;;
13327;SDS011;6733;51.044;3.746;2022-09-13T09:34:17;13.03;;;9.07;;
13327;SDS011;6733;51.044;3.746;2022-09-13T09:39:49;10.17;;;9.03;;
13327;SDS011;6733;51.044;3.746;2022-09-13T09:42:23;9.53;;;8.53;;
13327;SDS011;6733;51.044;3.746;2022-09-13T09:44:55;9.97;;;8.60;;
13327;SDS011;6733;51.044;3.746;2022-09-13T09:47:26;10.43;;;8.30;;
13327;SDS011;6733;51.044;3.746;2022-09-13T09:50:00;26.87;;;8.87;;
13327;SDS011;6733;51.044;3.746;2022-09-13T10:00:33;11.27;;;8.47;;
13327;SDS011;6733;51.044;3.746;2022-09-13T10:03:18;11.20;;;7.80;;
13327;SDS011;6733;51.044;3.746;2022-09-13T10:05:48;8.33;;;7.47;;
13327;SDS011;6733;51.044;3.746;2022-09-13T10:08:24;7.83;;;7.03;;
13327;SDS011;6733;51.044;3.746;2022-09-13T10:10:56;10.60;;;7.93;;
13327;SDS011;6733;51.044;3.746;2022-09-13T10:13:25;8.53;;;7.30;;
13327;SDS011;6733;51.044;3.746;2022-09-13T10:15:59;9.55;;;7.47;;
13327;SDS011;6733;51.044;3.746;2022-09-13T10:18:26;8.90;;;7.67;;
13327;SDS011;6733;51.044;3.746;2022-09-13T10:23:44;12.00;;;7.20;;
13327;SDS011;6733;51.044;3.746;2022-09-13T10:26:19;7.85;;;6.63;;
13327;SDS011;6733;51.044;3.746;2022-09-13T10:31:17;9.98;;;6.88;;
13327;SDS011;6733;51.044;3.746;2022-09-13T10:36:15;9.90;;;6.03;;
13327;SDS011;6733;51.044;3.746;2022-09-13T10:38:50;11.48;;;5.97;;
13327;SDS011;6733;51.044;3.746;2022-09-13T10:41:25;7.82;;;7.03;;
13327;SDS011;6733;51.044;3.746;2022-09-13T10:43:57;7.07;;;6.38;;
13327;SDS011;6733;51.044;3.746;2022-09-13T10:46:25;10.48;;;6.65;;
13327;SDS011;6733;51.044;3.746;2022-09-13T10:48:54;10.63;;;8.07;;
13327;SDS011;6733;51.044;3.746;2022-09-13T10:56:35;9.95;;;6.07;;
13327;SDS011;6733;51.044;3.746;2022-09-13T11:05:02;11.60;;;6.05;;
13327;SDS011;6733;51.044;3.746;2022-09-13T11:24:49;9.55;;;7.55;;
13327;SDS011;6733;51.044;3.746;2022-09-13T11:27:43;10.02;;;7.95;;
13327;SDS011;6733;51.044;3.746;2022-09-13T11:30:30;10.45;;;7.65;;
13327;SDS011;6733;51.044;3.746;2022-09-13T11:33:16;9.77;;;8.88;;
13327;SDS011;6733;51.044;3.746;2022-09-13T11:44:56;8.23;;;7.22;;
13327;SDS011;6733;51.044;3.746;2022-09-13T11:57:43;7.88;;;7.18;;
13327;SDS011;6733;51.044;3.746;2022-09-13T12:00:49;9.95;;;7.47;;
13327;SDS011;6733;51.044;3.746;2022-09-13T12:03:18;10.82;;;8.43;;
13327;SDS011;6733;51.044;3.746;2022-09-13T12:06:41;9.38;;;8.30;;
13327;SDS011;6733;51.044;3.746;2022-09-13T12:08:45;12.68;;;8.43;;
13327;SDS011;6733;51.044;3.746;2022-09-13T12:11:22;9.15;;;8.07;;
13327;SDS011;6733;51.044;3.746;2022-09-13T12:14:04;9.40;;;8.23;;
13327;SDS011;6733;51.044;3.746;2022-09-13T12:16:45;12.25;;;9.32;;
13327;SDS011;6733;51.044;3.746;2022-09-13T12:19:40;11.10;;;8.32;;
13327;SDS011;6733;51.044;3.746;2022-09-13T12:22:10;12.52;;;9.20;;
13327;SDS011;6733;51.044;3.746;2022-09-13T12:24:43;12.25;;;9.13;;
13327;SDS011;6733;51.044;3.746;2022-09-13T12:27:30;10.27;;;9.13;;
13327;SDS011;6733;51.044;3.746;2022-09-13T12:32:48;9.80;;;8.83;;
13327;SDS011;6733;51.044;3.746;2022-09-13T12:35:20;11.83;;;9.87;;
13327;SDS011;6733;51.044;3.746;2022-09-13T12:46:38;9.83;;;8.93;;
13327;SDS011;6733;51.044;3.746;2022-09-13T13:05:34;10.50;;;8.53;;
13327;SDS011;6733;51.044;3.746;2022-09-13T13:08:04;10.00;;;9.00;;
13327;SDS011;6733;51.044;3.746;2022-09-13T13:13:41;10.07;;;7.10;;
13327;SDS011;6733;51.044;3.746;2022-09-13T13:18:51;9.70;;;6.20;;
13327;SDS011;6733;51.044;3.746;2022-09-13T13:29:12;8.30;;;6.43;;
13327;SDS011;6733;51.044;3.746;2022-09-13T13:31:44;8.00;;;6.40;;
13327;SDS011;6733;51.044;3.746;2022-09-13T13:34:29;6.73;;;6.00;;
13327;SDS011;6733;51.044;3.746;2022-09-13T13:37:01;7.67;;;5.70;;
13327;SDS011;6733;51.044;3.746;2022-09-13T13:41:54;5.93;;;5.33;;
13327;SDS011;6733;51.044;3.746;2022-09-13T13:47:39;7.43;;;5.87;;
13327;SDS011;6733;51.044;3.746;2022-09-13T13:49:44;6.33;;;5.40;;
13327;SDS011;6733;51.044;3.746;2022-09-13T13:52:34;7.87;;;5.83;;
13327;SDS011;6733;51.044;3.746;2022-09-13T13:57:58;8.63;;;6.20;;
13327;SDS011;6733;51.044;3.746;2022-09-13T14:00:31;6.10;;;5.50;;
13327;SDS011;6733;51.044;3.746;2022-09-13T14:06:05;7.87;;;5.93;;
13327;SDS011;6733;51.044;3.746;2022-09-13T14:22:05;8.13;;;5.57;;
13327;SDS011;6733;51.044;3.746;2022-09-13T14:24:53;7.47;;;5.80;;
13327;SDS011;6733;51.044;3.746;2022-09-13T14:27:22;5.40;;;4.90;;
13327;SDS011;6733;51.044;3.746;2022-09-13T14:29:56;6.00;;;5.43;;
13327;SDS011;6733;51.044;3.746;2022-09-13T14:32:30;5.67;;;5.17;;
13327;SDS011;6733;51.044;3.746;2022-09-13T14:35:06;5.20;;;4.80;;
13327;SDS011;6733;51.044;3.746;2022-09-13T14:37:56;6.00;;;5.00;;
13327;SDS011;6733;51.044;3.746;2022-09-13T14:40:45;6.10;;;5.60;;
13327;SDS011;6733;51.044;3.746;2022-09-13T14:43:24;6.37;;;5.77;;
13327;SDS011;6733;51.044;3.746;2022-09-13T14:45:53;6.20;;;5.40;;
13327;SDS011;6733;51.044;3.746;2022-09-13T14:48:48;10.13;;;6.10;;
13327;SDS011;6733;51.044;3.746;2022-09-13T14:53:49;6.37;;;5.77;;
13327;SDS011;6733;51.044;3.746;2022-09-13T14:56:29;7.43;;;5.50;;
13327;SDS011;6733;51.044;3.746;2022-09-13T14:59:02;6.47;;;5.87;;
13327;SDS011;6733;51.044;3.746;2022-09-13T15:01:33;7.53;;;5.77;;
13327;SDS011;6733;51.044;3.746;2022-09-13T15:04:01;7.40;;;5.97;;
13327;SDS011;6733;51.044;3.746;2022-09-13T15:06:30;7.43;;;6.37;;
13327;SDS011;6733;51.044;3.746;2022-09-13T15:09:44;8.20;;;6.27;;
13327;SDS011;6733;51.044;3.746;2022-09-13T15:22:10;7.80;;;6.90;;
13327;SDS011;6733;51.044;3.746;2022-09-13T15:24:48;6.93;;;6.33;;
13327;SDS011;6733;51.044;3.746;2022-09-13T15:27:29;10.63;;;6.60;;
13327;SDS011;6733;51.044;3.746;2022-09-13T15:30:01;7.93;;;7.22;;
13327;SDS011;6733;51.044;3.746;2022-09-13T15:32:40;6.70;;;6.03;;
13327;SDS011;6733;51.044;3.746;2022-09-13T15:35:15;7.10;;;6.40;;
13327;SDS011;6733;51.044;3.746;2022-09-13T15:38:00;7.07;;;6.07;;
13327;SDS011;6733;51.044;3.746;2022-09-13T15:40:56;6.20;;;5.60;;
13327;SDS011;6733;51.044;3.746;2022-09-13T15:43:22;6.80;;;5.27;;
13327;SDS011;6733;51.044;3.746;2022-09-13T15:45:49;8.60;;;5.50;;
13327;SDS011;6733;51.044;3.746;2022-09-13T15:48:18;7.50;;;5.80;;
13327;SDS011;6733;51.044;3.746;2022-09-13T15:51:02;8.23;;;6.10;;
13327;SDS011;6733;51.044;3.746;2022-09-13T15:53:37;7.63;;;5.27;;
13327;SDS011;6733;51.044;3.746;2022-09-13T15:56:05;9.57;;;6.10;;
13327;SDS011;6733;51.044;3.746;2022-09-13T15:58:33;5.60;;;5.10;;
13327;SDS011;6733;51.044;3.746;2022-09-13T16:01:00;5.63;;;4.90;;
13327;SDS011;6733;51.044;3.746;2022-09-13T16:03:27;5.43;;;4.80;;
13327;SDS011;6733;51.044;3.746;2022-09-13T16:05:53;5.50;;;5.00;;
13327;SDS011;6733;51.044;3.746;2022-09-13T16:08:19;5.50;;;5.00;;
13327;SDS011;6733;51.044;3.746;2022-09-13T16:10:46;5.93;;;5.33;;
13327;SDS011;6733;51.044;3.746;2022-09-13T16:13:12;7.13;;;4.97;;
13327;SDS011;6733;51.044;3.746;2022-09-13T16:15:38;5.27;;;4.67;;
13327;SDS011;6733;51.044;3.746;2022-09-13T16:18:04;4.90;;;4.47;;
13327;SDS011;6733;51.044;3.746;2022-09-13T16:20:30;6.00;;;4.80;;
13327;SDS011;6733;51.044;3.746;2022-09-13T16:22:56;4.80;;;4.37;;
13327;SDS011;6733;51.044;3.746;2022-09-13T16:25:22;5.80;;;4.37;;
13327;SDS011;6733;51.044;3.746;2022-09-13T16:27:49;4.57;;;4.10;;
13327;SDS011;6733;51.044;3.746;2022-09-13T16:30:18;5.37;;;4.33;;
13327;SDS011;6733;51.044;3.746;2022-09-13T16:32:46;4.57;;;3.93;;
13327;SDS011;6733;51.044;3.746;2022-09-13T16:35:13;4.90;;;3.80;;
13327;SDS011;6733;51.044;3.746;2022-09-13T16:37:41;4.23;;;3.83;;
13327;SDS011;6733;51.044;3.746;2022-09-13T16:40:09;4.17;;;3.80;;
13327;SDS011;6733;51.044;3.746;2022-09-13T16:42:36;4.10;;;3.70;;
13327;SDS011;6733;51.044;3.746;2022-09-13T16:45:02;3.83;;;3.53;;
13327;SDS011;6733;51.044;3.746;2022-09-13T16:47:29;3.80;;;3.50;;
13327;SDS011;6733;51.044;3.746;2022-09-13T16:49:55;4.27;;;3.63;;
13327;SDS011;6733;51.044;3.746;2022-09-13T16:52:21;3.83;;;3.33;;
13327;SDS011;6733;51.044;3.746;2022-09-13T16:54:47;4.03;;;3.70;;
13327;SDS011;6733;51.044;3.746;2022-09-13T16:57:15;6.73;;;4.57;;
13327;SDS011;6733;51.044;3.746;2022-09-13T16:59:41;10.87;;;6.17;;
13327;SDS011;6733;51.044;3.746;2022-09-13T17:02:10;8.80;;;6.10;;
13327;SDS011;6733;51.044;3.746;2022-09-13T17:04:36;8.07;;;5.50;;
13327;SDS011;6733;51.044;3.746;2022-09-13T17:07:03;5.60;;;4.37;;
13327;SDS011;6733;51.044;3.746;2022-09-13T17:09:32;7.07;;;4.17;;
13327;SDS011;6733;51.044;3.746;2022-09-13T17:11:59;5.73;;;4.13;;
13327;SDS011;6733;51.044;3.746;2022-09-13T17:14:25;6.07;;;4.40;;
13327;SDS011;6733;51.044;3.746;2022-09-13T17:16:53;4.87;;;3.80;;
13327;SDS011;6733;51.044;3.746;2022-09-13T17:19:24;6.27;;;3.93;;
13327;SDS011;6733;51.044;3.746;2022-09-13T17:21:55;4.17;;;3.47;;
13327;SDS011;6733;51.044;3.746;2022-09-13T17:24:26;3.97;;;3.57;;
13327;SDS011;6733;51.044;3.746;2022-09-13T17:26:53;4.10;;;3.47;;
13327;SDS011;6733;51.044;3.746;2022-09-13T17:29:21;4.10;;;3.70;;
13327;SDS011;6733;51.044;3.746;2022-09-13T17:31:52;4.20;;;3.43;;
13327;SDS011;6733;51.044;3.746;2022-09-13T17:34:18;4.80;;;3.47;;
13327;SDS011;6733;51.044;3.746;2022-09-13T17:36:44;3.97;;;3.40;;
13327;SDS011;6733;51.044;3.746;2022-09-13T17:39:10;5.67;;;3.30;;
13327;SDS011;6733;51.044;3.746;2022-09-13T17:41:37;4.33;;;3.47;;
13327;SDS011;6733;51.044;3.746;2022-09-13T17:44:03;4.50;;;3.33;;
13327;SDS011;6733;51.044;3.746;2022-09-13T17:46:30;7.47;;;3.80;;
13327;SDS011;6733;51.044;3.746;2022-09-13T17:48:57;6.20;;;4.03;;
13327;SDS011;6733;51.044;3.746;2022-09-13T17:51:28;4.83;;;4.27;;
13327;SDS011;6733;51.044;3.746;2022-09-13T17:53:59;5.10;;;4.03;;
13327;SDS011;6733;51.044;3.746;2022-09-13T17:56:28;5.03;;;4.50;;
13327;SDS011;6733;51.044;3.746;2022-09-13T17:59:03;3.90;;;3.50;;
13327;SDS011;6733;51.044;3.746;2022-09-13T18:01:33;4.20;;;3.77;;
13327;SDS011;6733;51.044;3.746;2022-09-13T18:04:00;5.13;;;3.83;;
13327;SDS011;6733;51.044;3.746;2022-09-13T18:06:26;4.63;;;4.20;;
13327;SDS011;6733;51.044;3.746;2022-09-13T18:08:53;4.30;;;3.83;;
13327;SDS011;6733;51.044;3.746;2022-09-13T18:11:20;4.73;;;4.13;;
13327;SDS011;6733;51.044;3.746;2022-09-13T18:13:46;4.07;;;3.73;;
13327;SDS011;6733;51.044;3.746;2022-09-13T18:16:14;4.33;;;3.93;;
13327;SDS011;6733;51.044;3.746;2022-09-13T18:18:42;4.73;;;3.93;;
13327;SDS011;6733;51.044;3.746;2022-09-13T18:21:10;4.33;;;3.93;;
13327;SDS011;6733;51.044;3.746;2022-09-13T18:23:39;4.27;;;3.70;;
13327;SDS011;6733;51.044;3.746;2022-09-13T18:26:13;4.00;;;3.67;;
13327;SDS011;6733;51.044;3.746;2022-09-13T18:28:42;4.00;;;3.57;;
13327;SDS011;6733;51.044;3.746;2022-09-13T18:31:11;3.80;;;3.50;;
13327;SDS011;6733;51.044;3.746;2022-09-13T18:33:42;4.93;;;3.33;;
13327;SDS011;6733;51.044;3.746;2022-09-13T18:36:13;4.17;;;3.53;;
13327;SDS011;6733;51.044;3.746;2022-09-13T18:38:41;3.70;;;3.30;;
13327;SDS011;6733;51.044;3.746;2022-09-13T18:41:20;3.57;;;3.27;;
13327;SDS011;6733;51.044;3.746;2022-09-13T18:43:48;3.70;;;3.40;;
13327;SDS011;6733;51.044;3.746;2022-09-13T18:46:17;3.43;;;3.13;;
13327;SDS011;6733;51.044;3.746;2022-09-13T18:48:45;3.40;;;3.10;;
13327;SDS011;6733;51.044;3.746;2022-09-13T18:51:16;3.43;;;3.13;;
13327;SDS011;6733;51.044;3.746;2022-09-13T18:53:44;5.30;;;3.10;;
13327;SDS011;6733;51.044;3.746;2022-09-13T18:56:12;4.83;;;3.10;;
13327;SDS011;6733;51.044;3.746;2022-09-13T18:58:43;7.80;;;3.53;;
13327;SDS011;6733;51.044;3.746;2022-09-13T19:01:10;7.50;;;3.37;;
13327;SDS011;6733;51.044;3.746;2022-09-13T19:03:57;7.63;;;3.50;;
13327;SDS011;6733;51.044;3.746;2022-09-13T19:06:32;4.73;;;3.20;;